createdAt,value
2017-07-10T00:00:32.722Z,0
2017-07-10T00:01:34.158Z,0
2017-07-10T00:02:35.581Z,0
2017-07-10T00:03:37.010Z,0
2017-07-10T00:04:38.441Z,0
2017-07-10T00:05:39.867Z,0
2017-07-10T00:06:41.298Z,0
2017-07-10T00:07:42.721Z,0
2017-07-10T00:08:44.144Z,0
2017-07-10T00:09:45.598Z,0
2017-07-10T00:10:47.035Z,0
2017-07-10T00:11:48.454Z,0
2017-07-10T00:12:49.879Z,0
2017-07-10T00:13:51.304Z,0
2017-07-10T00:14:52.728Z,0
2017-07-10T00:15:54.151Z,0
2017-07-10T00:16:55.576Z,0
2017-07-10T00:17:57.002Z,0
2017-07-10T00:18:58.426Z,0
2017-07-10T00:19:59.852Z,0
2017-07-10T00:21:01.576Z,0
2017-07-10T00:22:03.003Z,0
2017-07-10T00:23:04.426Z,0
2017-07-10T00:24:05.856Z,0
2017-07-10T00:25:07.280Z,0
2017-07-10T00:26:08.703Z,0
2017-07-10T00:27:10.124Z,0
2017-07-10T00:28:11.547Z,0
2017-07-10T00:29:12.975Z,0
2017-07-10T00:30:14.397Z,0
2017-07-10T00:31:15.825Z,0
2017-07-10T00:32:17.255Z,0
2017-07-10T00:33:18.674Z,0
2017-07-10T00:34:20.097Z,0
2017-07-10T00:35:21.531Z,0
2017-07-10T00:36:22.952Z,0
2017-07-10T00:37:24.376Z,0
2017-07-10T00:38:25.812Z,0
2017-07-10T00:39:27.239Z,0
2017-07-10T00:40:28.667Z,0
2017-07-10T00:41:30.090Z,0
2017-07-10T00:42:31.513Z,0
2017-07-10T00:43:32.935Z,0
2017-07-10T00:44:34.360Z,0
2017-07-10T00:45:35.787Z,0
2017-07-10T00:46:37.209Z,0
2017-07-10T00:47:38.635Z,0
2017-07-10T00:48:40.079Z,0
2017-07-10T00:49:41.503Z,0
2017-07-10T00:50:42.933Z,0
2017-07-10T00:51:44.362Z,0
2017-07-10T00:52:45.786Z,0
2017-07-10T00:53:47.212Z,0
2017-07-10T00:54:48.632Z,0
2017-07-10T00:55:50.060Z,0
2017-07-10T00:56:51.492Z,0
2017-07-10T00:57:52.930Z,0
2017-07-10T00:58:54.353Z,0
2017-07-10T00:59:55.777Z,0
2017-07-10T01:00:57.202Z,0
2017-07-10T01:01:58.630Z,0
2017-07-10T01:03:00.053Z,0
2017-07-10T01:04:01.513Z,0
2017-07-10T01:05:02.943Z,0
2017-07-10T01:06:04.369Z,0
2017-07-10T01:07:05.838Z,0
2017-07-10T01:08:07.277Z,0
2017-07-10T01:09:08.701Z,0
2017-07-10T01:10:10.129Z,0
2017-07-10T01:11:11.575Z,0
2017-07-10T01:12:13.001Z,0
2017-07-10T01:13:14.465Z,0
2017-07-10T01:14:15.903Z,0
2017-07-10T01:15:17.399Z,0
2017-07-10T01:16:18.889Z,0
2017-07-10T01:17:20.400Z,0
2017-07-10T01:18:21.816Z,0
2017-07-10T01:19:23.238Z,0
2017-07-10T01:20:24.660Z,0
2017-07-10T01:21:26.088Z,0
2017-07-10T01:22:27.504Z,0
2017-07-10T01:23:28.929Z,0
2017-07-10T01:24:30.351Z,0
2017-07-10T01:26:11.784Z,0
2017-07-10T01:27:13.215Z,0
2017-07-10T01:28:14.635Z,0
2017-07-10T01:29:16.064Z,0
2017-07-10T01:30:17.483Z,0
2017-07-10T01:31:18.911Z,0
2017-07-10T01:32:20.331Z,0
2017-07-10T01:33:21.760Z,0
2017-07-10T01:34:23.185Z,0
2017-07-10T01:35:24.675Z,0
2017-07-10T01:36:26.153Z,0
2017-07-10T01:37:27.571Z,0
2017-07-10T01:38:28.998Z,0
2017-07-10T01:39:30.417Z,0
2017-07-10T01:40:31.838Z,0
2017-07-10T01:41:33.262Z,0
2017-07-10T01:42:34.686Z,0
2017-07-10T01:43:36.107Z,0
2017-07-10T01:44:37.531Z,0
2017-07-10T01:45:38.968Z,0
2017-07-10T01:46:40.392Z,0
2017-07-10T01:47:41.832Z,0
2017-07-10T01:48:43.249Z,0
2017-07-10T01:49:44.669Z,0
2017-07-10T01:50:46.092Z,0
2017-07-10T01:51:47.514Z,0
2017-07-10T01:52:48.938Z,0
2017-07-10T01:53:50.360Z,0
2017-07-10T01:54:51.794Z,0
2017-07-10T01:55:53.223Z,0
2017-07-10T01:56:54.648Z,0
2017-07-10T01:57:56.070Z,0
2017-07-10T01:58:57.493Z,0
2017-07-10T01:59:58.916Z,0
2017-07-10T02:01:00.338Z,0
2017-07-10T02:02:01.760Z,0
2017-07-10T02:03:03.187Z,0
2017-07-10T02:04:04.611Z,0
2017-07-10T02:05:06.034Z,0
2017-07-10T02:06:07.462Z,0
2017-07-10T02:07:08.888Z,0
2017-07-10T02:08:10.309Z,0
2017-07-10T02:09:11.736Z,0
2017-07-10T02:10:13.160Z,0
2017-07-10T02:11:14.586Z,0
2017-07-10T02:12:16.012Z,0
2017-07-10T02:13:17.429Z,0
2017-07-10T02:14:18.850Z,0
2017-07-10T02:15:20.277Z,0
2017-07-10T02:16:21.696Z,0
2017-07-10T02:17:23.123Z,0
2017-07-10T02:18:24.549Z,0
2017-07-10T02:19:25.973Z,0
2017-07-10T02:20:27.393Z,0
2017-07-10T02:21:28.816Z,0
2017-07-10T02:22:30.239Z,0
2017-07-10T02:23:31.662Z,0
2017-07-10T02:24:33.088Z,0
2017-07-10T02:25:34.509Z,0
2017-07-10T02:26:35.930Z,0
2017-07-10T02:27:37.353Z,0
2017-07-10T02:28:38.776Z,0
2017-07-10T02:29:40.196Z,0
2017-07-10T02:30:41.620Z,0
2017-07-10T02:31:43.045Z,0
2017-07-10T02:32:44.470Z,0
2017-07-10T02:33:45.893Z,0
2017-07-10T02:34:47.317Z,0
2017-07-10T02:35:48.740Z,0
2017-07-10T02:36:50.164Z,0
2017-07-10T02:37:51.584Z,0
2017-07-10T02:38:53.028Z,0
2017-07-10T02:39:54.451Z,0
2017-07-10T02:40:55.863Z,0
2017-07-10T02:41:57.292Z,0
2017-07-10T02:42:58.710Z,0
2017-07-10T02:44:00.130Z,0
2017-07-10T02:45:01.561Z,0
2017-07-10T02:46:02.984Z,0
2017-07-10T02:47:04.408Z,0
2017-07-10T02:48:05.845Z,0
2017-07-10T02:49:07.264Z,0
2017-07-10T02:50:08.689Z,0
2017-07-10T02:51:10.124Z,0
2017-07-10T02:52:11.546Z,0
2017-07-10T02:53:12.965Z,0
2017-07-10T02:54:14.396Z,0
2017-07-10T02:55:15.820Z,0
2017-07-10T02:56:17.244Z,0
2017-07-10T02:57:18.677Z,0
2017-07-10T02:58:20.095Z,0
2017-07-10T02:59:21.515Z,0
2017-07-10T03:00:22.940Z,0
2017-07-10T03:01:24.362Z,0
2017-07-10T03:02:25.787Z,0
2017-07-10T03:03:27.210Z,0
2017-07-10T03:04:28.631Z,0
2017-07-10T03:05:30.054Z,0
2017-07-10T03:06:31.479Z,0
2017-07-10T03:07:32.899Z,0
2017-07-10T03:08:34.312Z,0
2017-07-10T03:09:35.743Z,0
2017-07-10T03:10:37.168Z,0
2017-07-10T03:11:38.587Z,0
2017-07-10T03:12:40.012Z,0
2017-07-10T03:13:41.434Z,0
2017-07-10T03:14:42.857Z,0
2017-07-10T03:15:44.280Z,0
2017-07-10T03:16:45.705Z,0
2017-07-10T03:17:47.125Z,0
2017-07-10T03:18:48.547Z,0
2017-07-10T03:19:49.971Z,0
2017-07-10T03:20:51.396Z,0
2017-07-10T03:21:52.819Z,0
2017-07-10T03:22:54.243Z,0
2017-07-10T03:23:55.667Z,0
2017-07-10T03:24:57.094Z,0
2017-07-10T03:25:58.516Z,0
2017-07-10T03:26:59.941Z,0
2017-07-10T03:28:01.377Z,0
2017-07-10T03:29:02.801Z,0
2017-07-10T03:30:04.223Z,0
2017-07-10T03:31:05.668Z,0
2017-07-10T03:32:07.089Z,0
2017-07-10T03:33:08.523Z,0
2017-07-10T03:34:09.936Z,0
2017-07-10T03:35:11.359Z,0
2017-07-10T03:36:12.790Z,0
2017-07-10T03:37:14.206Z,0
2017-07-10T03:38:15.628Z,0
2017-07-10T03:39:17.051Z,0
2017-07-10T03:40:18.475Z,0
2017-07-10T03:41:19.899Z,0
2017-07-10T03:42:21.349Z,0
2017-07-10T03:43:22.767Z,0
2017-07-10T03:44:24.191Z,0
2017-07-10T03:45:25.616Z,0
2017-07-10T03:46:27.039Z,0
2017-07-10T03:47:28.462Z,0
2017-07-10T03:48:29.885Z,0
2017-07-10T03:49:31.310Z,0
2017-07-10T03:50:32.735Z,0
2017-07-10T03:51:34.160Z,0
2017-07-10T03:52:35.585Z,0
2017-07-10T03:53:37.009Z,0
2017-07-10T03:54:38.435Z,0
2017-07-10T03:55:39.867Z,0
2017-07-10T03:56:41.283Z,0
2017-07-10T03:57:42.708Z,0
2017-07-10T03:58:44.129Z,0
2017-07-10T03:59:45.552Z,0
2017-07-10T04:00:46.978Z,0
2017-07-10T04:01:48.400Z,0
2017-07-10T04:02:49.826Z,0
2017-07-10T04:03:51.250Z,0
2017-07-10T04:04:52.677Z,0
2017-07-10T04:05:54.101Z,0
2017-07-10T04:06:55.526Z,0
2017-07-10T04:07:56.951Z,0
2017-07-10T04:08:58.372Z,0
2017-07-10T04:09:59.796Z,0
2017-07-10T04:11:01.221Z,0
2017-07-10T04:12:02.645Z,0
2017-07-10T04:13:04.066Z,0
2017-07-10T04:14:05.493Z,0
2017-07-10T04:15:06.920Z,0
2017-07-10T04:16:08.344Z,0
2017-07-10T04:17:09.767Z,0
2017-07-10T04:18:11.191Z,0
2017-07-10T04:19:12.618Z,0
2017-07-10T04:20:14.043Z,0
2017-07-10T04:21:15.477Z,0
2017-07-10T04:22:16.900Z,0
2017-07-10T04:23:18.328Z,0
2017-07-10T04:24:19.750Z,0
2017-07-10T04:25:21.174Z,0
2017-07-10T04:26:22.598Z,0
2017-07-10T04:27:24.025Z,0
2017-07-10T04:28:25.450Z,0
2017-07-10T04:29:26.879Z,0
2017-07-10T04:30:28.299Z,0
2017-07-10T04:31:29.722Z,0
2017-07-10T04:32:31.147Z,0
2017-07-10T04:33:32.570Z,0
2017-07-10T04:34:33.994Z,0
2017-07-10T04:35:35.421Z,0
2017-07-10T04:36:36.843Z,0
2017-07-10T04:37:38.263Z,0
2017-07-10T04:38:39.691Z,0
2017-07-10T04:39:41.111Z,0
2017-07-10T04:40:42.538Z,0
2017-07-10T04:41:43.963Z,0
2017-07-10T04:42:45.420Z,0
2017-07-10T04:43:46.847Z,0
2017-07-10T04:44:48.278Z,0
2017-07-10T04:45:49.698Z,0
2017-07-10T04:46:51.116Z,0
2017-07-10T04:47:52.544Z,0
2017-07-10T04:48:53.969Z,0
2017-07-10T04:49:55.398Z,0
2017-07-10T04:50:56.826Z,0
2017-07-10T04:51:58.249Z,0
2017-07-10T04:52:59.673Z,0
2017-07-10T04:54:01.099Z,0
2017-07-10T04:55:02.522Z,0
2017-07-10T04:56:03.949Z,0
2017-07-10T04:57:05.374Z,0
2017-07-10T04:58:06.798Z,0
2017-07-10T04:59:08.223Z,0
2017-07-10T05:00:09.665Z,0
2017-07-10T05:01:11.102Z,0
2017-07-10T05:02:12.524Z,0
2017-07-10T05:03:13.949Z,0
2017-07-10T05:04:15.373Z,0
2017-07-10T05:05:16.801Z,0
2017-07-10T05:06:18.227Z,0
2017-07-10T05:07:19.650Z,0
2017-07-10T05:08:21.076Z,0
2017-07-10T05:09:22.506Z,0
2017-07-10T05:10:23.927Z,0
2017-07-10T05:11:25.352Z,0
2017-07-10T05:12:26.778Z,0
2017-07-10T05:13:28.202Z,0
2017-07-10T05:14:29.633Z,0
2017-07-10T05:15:31.054Z,0
2017-07-10T05:16:32.477Z,0
2017-07-10T05:17:33.910Z,0
2017-07-10T05:18:35.334Z,0
2017-07-10T05:19:36.759Z,0
2017-07-10T05:20:38.185Z,0
2017-07-10T05:21:39.610Z,0
2017-07-10T05:22:41.037Z,0
2017-07-10T05:23:42.461Z,0
2017-07-10T05:24:43.883Z,0
2017-07-10T05:25:45.307Z,0
2017-07-10T05:26:46.755Z,0
2017-07-10T05:27:48.176Z,0
2017-07-10T05:28:49.598Z,0
2017-07-10T05:29:51.033Z,0
2017-07-10T05:30:52.464Z,0
2017-07-10T05:31:53.873Z,0
2017-07-10T05:32:55.308Z,0
2017-07-10T05:33:56.736Z,0
2017-07-10T05:34:58.162Z,0
2017-07-10T05:35:59.586Z,0
2017-07-10T05:37:01.014Z,0
2017-07-10T05:38:02.439Z,0
2017-07-10T05:39:03.861Z,0
2017-07-10T05:40:05.287Z,0
2017-07-10T05:41:06.723Z,0
2017-07-10T05:42:08.148Z,0
2017-07-10T05:43:09.574Z,0
2017-07-10T05:44:11.000Z,0
2017-07-10T05:45:12.432Z,0
2017-07-10T05:46:13.886Z,0
2017-07-10T05:47:15.309Z,0
2017-07-10T05:48:16.737Z,0
2017-07-10T05:49:18.159Z,0
2017-07-10T05:50:19.584Z,0
2017-07-10T05:51:21.024Z,0
2017-07-10T05:52:22.449Z,0
2017-07-10T05:53:23.871Z,0
2017-07-10T05:54:25.298Z,0
2017-07-10T05:55:26.722Z,0
2017-07-10T05:56:28.146Z,0
2017-07-10T05:57:29.571Z,0
2017-07-10T05:58:31.000Z,0
2017-07-10T05:59:32.413Z,0
2017-07-10T06:00:33.849Z,0
2017-07-10T06:01:35.276Z,0
2017-07-10T06:02:36.708Z,0
2017-07-10T06:03:38.135Z,0
2017-07-10T06:04:39.576Z,0
2017-07-10T06:05:41.007Z,0
2017-07-10T06:06:42.432Z,0
2017-07-10T06:07:43.856Z,0
2017-07-10T06:08:45.284Z,0
2017-07-10T06:09:46.706Z,0
2017-07-10T06:10:48.130Z,0
2017-07-10T06:11:49.556Z,0
2017-07-10T06:12:50.983Z,0
2017-07-10T06:13:52.410Z,0
2017-07-10T06:14:53.840Z,0
2017-07-10T06:15:55.265Z,0
2017-07-10T06:16:56.715Z,0
2017-07-10T06:17:58.156Z,0
2017-07-10T06:18:59.577Z,0
2017-07-10T06:20:01.005Z,0
2017-07-10T06:21:02.429Z,0
2017-07-10T06:22:03.851Z,0
2017-07-10T06:23:05.275Z,0
2017-07-10T06:24:06.703Z,0
2017-07-10T06:25:08.131Z,0
2017-07-10T06:26:09.562Z,0
2017-07-10T06:27:11.008Z,0
2017-07-10T06:28:12.434Z,0
2017-07-10T06:29:13.861Z,0
2017-07-10T06:30:15.286Z,0
2017-07-10T06:31:16.720Z,0
2017-07-10T06:32:18.145Z,0
2017-07-10T06:33:19.569Z,0
2017-07-10T06:34:21.000Z,0
2017-07-10T06:35:22.420Z,0
2017-07-10T06:36:23.846Z,0
2017-07-10T06:37:25.274Z,0
2017-07-10T06:38:26.704Z,0
2017-07-10T06:39:28.127Z,0
2017-07-10T06:40:29.554Z,0
2017-07-10T06:41:30.981Z,0
2017-07-10T06:42:32.406Z,0
2017-07-10T06:43:33.833Z,0
2017-07-10T06:44:35.257Z,0
2017-07-10T06:45:36.687Z,0
2017-07-10T06:46:38.107Z,0
2017-07-10T06:47:39.534Z,0
2017-07-10T06:48:40.958Z,0
2017-07-10T06:49:42.386Z,0
2017-07-10T06:50:43.829Z,0
2017-07-10T06:51:45.255Z,0
2017-07-10T06:52:46.681Z,0
2017-07-10T06:53:48.105Z,0
2017-07-10T06:54:49.528Z,0
2017-07-10T06:55:50.953Z,0
2017-07-10T06:56:52.378Z,0
2017-07-10T06:57:53.806Z,0
2017-07-10T06:58:55.230Z,0
2017-07-10T06:59:56.655Z,0
2017-07-10T07:00:58.090Z,0
2017-07-10T07:01:59.508Z,0
2017-07-10T07:03:00.932Z,0
2017-07-10T07:04:02.355Z,0
2017-07-10T07:05:03.782Z,0
2017-07-10T07:06:05.209Z,5
2017-07-10T07:07:06.634Z,5
2017-07-10T07:08:08.058Z,5
2017-07-10T07:09:09.482Z,5
2017-07-10T07:10:10.906Z,5
2017-07-10T07:11:12.338Z,5
2017-07-10T07:12:13.762Z,5
2017-07-10T07:13:15.189Z,5
2017-07-10T07:14:16.615Z,5
2017-07-10T07:15:18.039Z,5
2017-07-10T07:16:19.465Z,0
2017-07-10T07:17:20.888Z,0
2017-07-10T07:18:22.310Z,0
2017-07-10T07:19:23.735Z,0
2017-07-10T07:20:25.159Z,0
2017-07-10T07:21:26.587Z,0
2017-07-10T07:22:28.014Z,0
2017-07-10T07:23:29.440Z,0
2017-07-10T07:24:30.867Z,0
2017-07-10T07:25:32.297Z,0
2017-07-10T07:26:33.719Z,0
2017-07-10T07:27:35.141Z,0
2017-07-10T07:28:36.567Z,5
2017-07-10T07:29:37.991Z,5
2017-07-10T07:30:39.421Z,5
2017-07-10T07:31:40.848Z,5
2017-07-10T07:32:42.273Z,5
2017-07-10T07:33:43.700Z,5
2017-07-10T07:34:45.126Z,5
2017-07-10T07:35:46.552Z,5
2017-07-10T07:36:47.981Z,5
2017-07-10T07:37:49.401Z,5
2017-07-10T07:38:50.823Z,5
2017-07-10T07:39:52.252Z,5
2017-07-10T07:40:53.682Z,5
2017-07-10T07:41:55.107Z,5
2017-07-10T07:42:56.532Z,5
2017-07-10T07:43:57.958Z,5
2017-07-10T07:44:59.383Z,5
2017-07-10T07:46:00.808Z,5
2017-07-10T07:47:02.233Z,5
2017-07-10T07:48:03.658Z,5
2017-07-10T07:49:05.085Z,5
2017-07-10T07:50:06.510Z,5
2017-07-10T07:51:07.938Z,5
2017-07-10T07:52:09.363Z,5
2017-07-10T07:53:10.802Z,5
2017-07-10T07:54:12.226Z,5
2017-07-10T07:55:13.652Z,10
2017-07-10T07:56:15.083Z,5
2017-07-10T07:57:16.509Z,5
2017-07-10T07:58:17.937Z,5
2017-07-10T07:59:19.361Z,5
2017-07-10T08:00:20.785Z,5
2017-07-10T08:01:22.215Z,5
2017-07-10T08:02:23.666Z,5
2017-07-10T08:03:25.089Z,5
2017-07-10T08:04:26.568Z,5
2017-07-10T08:05:27.982Z,5
2017-07-10T08:06:29.415Z,5
2017-07-10T08:07:30.865Z,5
2017-07-10T08:08:32.324Z,5
2017-07-10T08:09:33.800Z,5
2017-07-10T08:10:35.386Z,5
2017-07-10T08:11:36.784Z,5
2017-07-10T08:12:38.214Z,5
2017-07-10T08:13:39.857Z,5
2017-07-10T08:14:41.281Z,5
2017-07-10T08:15:42.717Z,5
2017-07-10T08:16:44.148Z,5
2017-07-10T08:17:45.572Z,5
2017-07-10T08:18:47.001Z,5
2017-07-10T08:19:48.427Z,5
2017-07-10T08:20:49.897Z,5
2017-07-10T08:21:51.325Z,10
2017-07-10T08:22:52.767Z,10
2017-07-10T08:23:54.192Z,10
2017-07-10T08:24:55.620Z,10
2017-07-10T08:25:57.082Z,10
2017-07-10T08:26:58.528Z,10
2017-07-10T08:27:59.958Z,10
2017-07-10T08:29:01.384Z,10
2017-07-10T08:30:02.842Z,10
2017-07-10T08:31:04.274Z,5
2017-07-10T08:32:05.702Z,10
2017-07-10T08:33:07.130Z,5
2017-07-10T08:34:08.556Z,10
2017-07-10T08:35:09.979Z,10
2017-07-10T08:36:11.427Z,5
2017-07-10T08:37:12.858Z,5
2017-07-10T08:38:14.287Z,5
2017-07-10T08:39:15.717Z,5
2017-07-10T08:40:17.135Z,5
2017-07-10T08:41:18.583Z,5
2017-07-10T08:42:20.009Z,5
2017-07-10T08:43:21.462Z,5
2017-07-10T08:44:22.887Z,5
2017-07-10T08:45:24.310Z,5
2017-07-10T08:46:25.737Z,5
2017-07-10T08:47:27.161Z,5
2017-07-10T08:48:28.599Z,10
2017-07-10T08:49:30.036Z,10
2017-07-10T08:50:31.464Z,10
2017-07-10T08:51:32.899Z,10
2017-07-10T08:52:34.328Z,10
2017-07-10T08:53:35.766Z,10
2017-07-10T08:54:37.192Z,10
2017-07-10T08:55:38.619Z,10
2017-07-10T08:56:40.045Z,10
2017-07-10T08:57:41.474Z,10
2017-07-10T08:58:42.900Z,10
2017-07-10T08:59:44.326Z,10
2017-07-10T09:00:45.758Z,10
2017-07-10T09:01:47.181Z,10
2017-07-10T09:02:48.608Z,10
2017-07-10T09:03:50.041Z,10
2017-07-10T09:04:51.473Z,15
2017-07-10T09:05:52.902Z,15
2017-07-10T09:06:54.330Z,15
2017-07-10T09:07:55.761Z,15
2017-07-10T09:08:57.185Z,10
2017-07-10T09:09:58.612Z,15
2017-07-10T09:11:00.038Z,10
2017-07-10T09:12:01.466Z,10
2017-07-10T09:13:02.893Z,10
2017-07-10T09:14:04.322Z,10
2017-07-10T09:15:05.751Z,10
2017-07-10T09:16:07.182Z,10
2017-07-10T09:17:08.606Z,10
2017-07-10T09:18:10.030Z,10
2017-07-10T09:19:11.461Z,10
2017-07-10T09:20:12.883Z,10
2017-07-10T09:21:14.313Z,10
2017-07-10T09:22:15.741Z,10
2017-07-10T09:23:17.164Z,10
2017-07-10T09:24:18.596Z,10
2017-07-10T09:25:20.022Z,10
2017-07-10T09:26:21.448Z,10
2017-07-10T09:27:22.877Z,15
2017-07-10T09:28:24.304Z,15
2017-07-10T09:29:25.736Z,15
2017-07-10T09:30:27.170Z,15
2017-07-10T09:31:28.665Z,15
2017-07-10T09:32:30.126Z,15
2017-07-10T09:33:31.560Z,15
2017-07-10T09:34:32.989Z,15
2017-07-10T09:35:34.423Z,15
2017-07-10T09:36:35.837Z,15
2017-07-10T09:37:37.299Z,15
2017-07-10T09:38:38.727Z,15
2017-07-10T09:39:40.158Z,15
2017-07-10T09:40:41.586Z,15
2017-07-10T09:41:43.017Z,10
2017-07-10T09:42:44.446Z,10
2017-07-10T09:43:45.888Z,15
2017-07-10T09:44:47.315Z,15
2017-07-10T09:45:48.749Z,15
2017-07-10T09:46:50.177Z,15
2017-07-10T09:47:51.600Z,15
2017-07-10T09:48:53.038Z,15
2017-07-10T09:49:54.481Z,15
2017-07-10T09:50:55.905Z,15
2017-07-10T09:51:57.335Z,15
2017-07-10T09:52:58.765Z,15
2017-07-10T09:54:00.190Z,15
2017-07-10T09:55:01.619Z,15
2017-07-10T09:56:03.057Z,15
2017-07-10T09:57:04.489Z,15
2017-07-10T09:58:05.920Z,15
2017-07-10T09:59:07.350Z,15
2017-07-10T10:00:08.781Z,15
2017-07-10T10:01:10.208Z,15
2017-07-10T10:02:11.643Z,15
2017-07-10T10:03:13.073Z,15
2017-07-10T10:04:14.500Z,15
2017-07-10T10:05:15.926Z,15
2017-07-10T10:06:17.357Z,15
2017-07-10T10:07:18.788Z,15
2017-07-10T10:08:20.218Z,10
2017-07-10T10:09:21.643Z,10
2017-07-10T10:10:23.071Z,10
2017-07-10T10:11:24.501Z,10
2017-07-10T10:12:25.945Z,10
2017-07-10T10:13:27.364Z,10
2017-07-10T10:14:28.792Z,10
2017-07-10T10:15:30.230Z,10
2017-07-10T10:16:31.656Z,10
2017-07-10T10:17:33.084Z,10
2017-07-10T10:18:34.515Z,10
2017-07-10T10:19:35.939Z,10
2017-07-10T10:20:37.368Z,10
2017-07-10T10:21:38.798Z,10
2017-07-10T10:22:40.223Z,10
2017-07-10T10:23:41.652Z,10
2017-07-10T10:24:43.081Z,10
2017-07-10T10:25:44.509Z,10
2017-07-10T10:26:45.936Z,10
2017-07-10T10:27:47.367Z,10
2017-07-10T10:28:48.795Z,10
2017-07-10T10:29:50.226Z,10
2017-07-10T10:30:51.657Z,15
2017-07-10T10:31:53.080Z,15
2017-07-10T10:32:54.510Z,15
2017-07-10T10:33:55.940Z,15
2017-07-10T10:34:57.371Z,15
2017-07-10T10:35:58.800Z,15
2017-07-10T10:37:00.229Z,15
2017-07-10T10:38:01.661Z,15
2017-07-10T10:39:03.090Z,15
2017-07-10T10:40:04.521Z,15
2017-07-10T10:41:05.949Z,20
2017-07-10T10:42:07.373Z,20
2017-07-10T10:43:08.810Z,20
2017-07-10T10:44:10.239Z,20
2017-07-10T10:45:11.699Z,20
2017-07-10T10:46:13.124Z,20
2017-07-10T10:47:14.556Z,20
2017-07-10T10:48:15.994Z,20
2017-07-10T10:49:17.411Z,20
2017-07-10T10:50:18.839Z,20
2017-07-10T10:51:20.269Z,15
2017-07-10T10:52:21.698Z,15
2017-07-10T10:53:23.126Z,15
2017-07-10T10:54:24.555Z,15
2017-07-10T10:55:25.980Z,15
2017-07-10T10:56:27.421Z,10
2017-07-10T10:57:28.850Z,10
2017-07-10T10:58:30.281Z,10
2017-07-10T10:59:31.718Z,10
2017-07-10T11:00:33.145Z,10
2017-07-10T11:01:34.571Z,10
2017-07-10T11:02:36.001Z,15
2017-07-10T11:03:37.431Z,15
2017-07-10T11:04:38.861Z,15
2017-07-10T11:05:40.289Z,15
2017-07-10T11:06:41.718Z,15
2017-07-10T11:07:43.148Z,15
2017-07-10T11:08:44.574Z,15
2017-07-10T11:09:46.003Z,15
2017-07-10T11:10:47.433Z,15
2017-07-10T11:11:48.863Z,15
2017-07-10T11:12:50.293Z,15
2017-07-10T11:13:51.716Z,15
2017-07-10T11:14:53.145Z,15
2017-07-10T11:15:54.573Z,15
2017-07-10T11:16:56.003Z,15
2017-07-10T11:17:57.432Z,15
2017-07-10T11:18:58.865Z,15
2017-07-10T11:20:00.288Z,15
2017-07-10T11:21:01.725Z,15
2017-07-10T11:22:03.151Z,15
2017-07-10T11:23:04.587Z,15
2017-07-10T11:24:06.018Z,15
2017-07-10T11:25:07.453Z,15
2017-07-10T11:26:08.880Z,15
2017-07-10T11:27:10.833Z,15
2017-07-10T11:28:12.263Z,15
2017-07-10T11:29:13.692Z,15
2017-07-10T11:30:15.120Z,15
2017-07-10T11:31:16.551Z,15
2017-07-10T11:32:17.978Z,15
2017-07-10T11:33:19.408Z,10
2017-07-10T11:34:20.838Z,15
2017-07-10T11:35:22.267Z,15
2017-07-10T11:36:23.701Z,15
2017-07-10T11:37:25.128Z,15
2017-07-10T11:38:26.555Z,15
2017-07-10T11:39:27.988Z,20
2017-07-10T11:40:29.418Z,20
2017-07-10T11:41:30.847Z,20
2017-07-10T11:42:32.277Z,20
2017-07-10T11:43:33.705Z,20
2017-07-10T11:44:35.134Z,15
2017-07-10T11:45:36.593Z,20
2017-07-10T11:46:38.022Z,20
2017-07-10T11:47:39.451Z,20
2017-07-10T11:48:40.882Z,15
2017-07-10T11:49:42.312Z,15
2017-07-10T11:50:43.740Z,20
2017-07-10T11:51:45.168Z,20
2017-07-10T11:52:46.599Z,20
2017-07-10T11:53:48.026Z,20
2017-07-10T11:54:49.457Z,20
2017-07-10T11:55:50.886Z,20
2017-07-10T11:56:52.316Z,20
2017-07-10T11:57:53.759Z,20
2017-07-10T11:58:55.180Z,20
2017-07-10T11:59:56.609Z,25
2017-07-10T12:00:58.039Z,15
2017-07-10T12:01:59.471Z,20
2017-07-10T12:03:00.900Z,25
2017-07-10T12:04:02.328Z,25
2017-07-10T12:05:03.762Z,25
2017-07-10T12:06:05.194Z,30
2017-07-10T12:07:06.626Z,30
2017-07-10T12:08:08.054Z,30
2017-07-10T12:09:09.485Z,30
2017-07-10T12:10:10.912Z,30
2017-07-10T12:11:12.353Z,30
2017-07-10T12:12:13.791Z,25
2017-07-10T12:13:15.216Z,15
2017-07-10T12:14:16.644Z,15
2017-07-10T12:15:18.071Z,15
2017-07-10T12:16:19.502Z,15
2017-07-10T12:17:20.931Z,20
2017-07-10T12:18:22.367Z,20
2017-07-10T12:19:23.793Z,15
2017-07-10T12:20:25.225Z,35
2017-07-10T12:21:26.653Z,10
2017-07-10T12:22:28.077Z,5
2017-07-10T12:23:29.504Z,5
2017-07-10T12:24:30.934Z,5
2017-07-10T12:25:32.361Z,5
2017-07-10T12:26:33.788Z,5
2017-07-10T12:27:35.239Z,10
2017-07-10T12:28:36.668Z,10
2017-07-10T12:29:38.095Z,10
2017-07-10T12:30:39.529Z,15
2017-07-10T12:31:40.960Z,15
2017-07-10T12:32:42.389Z,15
2017-07-10T12:33:43.818Z,15
2017-07-10T12:34:45.246Z,15
2017-07-10T12:35:46.675Z,20
2017-07-10T12:36:48.105Z,20
2017-07-10T12:37:49.535Z,15
2017-07-10T12:38:50.963Z,15
2017-07-10T12:39:52.401Z,15
2017-07-10T12:40:53.823Z,15
2017-07-10T12:41:55.250Z,15
2017-07-10T12:42:56.677Z,15
2017-07-10T12:43:58.110Z,10
2017-07-10T12:44:59.534Z,10
2017-07-10T12:46:00.964Z,10
2017-07-10T12:47:02.393Z,10
2017-07-10T12:48:03.821Z,10
2017-07-10T12:49:05.270Z,15
2017-07-10T12:50:06.698Z,15
2017-07-10T12:51:08.128Z,20
2017-07-10T12:52:09.557Z,20
2017-07-10T12:53:10.995Z,25
2017-07-10T12:54:12.427Z,35
2017-07-10T12:55:13.867Z,65
2017-07-10T12:56:15.296Z,40
2017-07-10T12:57:16.723Z,40
2017-07-10T12:58:18.154Z,75
2017-07-10T12:59:19.585Z,35
2017-07-10T13:00:21.018Z,45
2017-07-10T13:01:22.464Z,20
2017-07-10T13:02:23.894Z,20
2017-07-10T13:03:25.326Z,20
2017-07-10T13:04:26.758Z,10
2017-07-10T13:05:28.186Z,5
2017-07-10T13:06:29.620Z,10
2017-07-10T13:07:31.060Z,10
2017-07-10T13:08:32.488Z,10
2017-07-10T13:09:33.918Z,10
2017-07-10T13:10:35.347Z,10
2017-07-10T13:11:36.774Z,10
2017-07-10T13:12:38.201Z,10
2017-07-10T13:13:39.629Z,10
2017-07-10T13:14:41.059Z,10
2017-07-10T13:15:42.487Z,10
2017-07-10T13:16:43.917Z,10
2017-07-10T13:17:45.344Z,10
2017-07-10T13:18:46.774Z,10
2017-07-10T13:19:48.202Z,10
2017-07-10T13:20:49.635Z,15
2017-07-10T13:21:51.060Z,15
2017-07-10T13:22:52.490Z,20
2017-07-10T13:23:53.924Z,20
2017-07-10T13:24:55.352Z,20
2017-07-10T13:25:56.782Z,20
2017-07-10T13:26:58.211Z,65
2017-07-10T13:27:59.640Z,20
2017-07-10T13:29:01.069Z,15
2017-07-10T13:30:02.505Z,10
2017-07-10T13:31:03.934Z,10
2017-07-10T13:32:05.362Z,10
2017-07-10T13:33:06.791Z,5
2017-07-10T13:34:08.216Z,5
2017-07-10T13:35:09.644Z,5
2017-07-10T13:36:11.069Z,5
2017-07-10T13:37:12.502Z,5
2017-07-10T13:38:13.930Z,5
2017-07-10T13:39:15.357Z,5
2017-07-10T13:40:16.785Z,5
2017-07-10T13:41:18.213Z,5
2017-07-10T13:42:19.642Z,5
2017-07-10T13:43:21.067Z,5
2017-07-10T13:44:22.496Z,5
2017-07-10T13:45:23.921Z,5
2017-07-10T13:46:25.349Z,5
2017-07-10T13:47:26.778Z,5
2017-07-10T13:48:28.208Z,10
2017-07-10T13:49:29.640Z,10
2017-07-10T13:50:31.069Z,10
2017-07-10T13:51:32.496Z,10
2017-07-10T13:52:33.929Z,10
2017-07-10T13:53:35.362Z,10
2017-07-10T13:54:36.797Z,10
2017-07-10T13:55:38.228Z,15
2017-07-10T13:56:39.643Z,15
2017-07-10T13:57:41.088Z,20
2017-07-10T13:58:42.521Z,20
2017-07-10T13:59:43.958Z,25
2017-07-10T14:00:45.443Z,25
2017-07-10T14:01:46.879Z,25
2017-07-10T14:02:48.309Z,30
2017-07-10T14:03:49.739Z,30
2017-07-10T14:04:51.168Z,30
2017-07-10T14:05:52.602Z,20
2017-07-10T14:06:54.025Z,20
2017-07-10T14:07:55.460Z,25
2017-07-10T14:08:56.897Z,20
2017-07-10T14:09:58.326Z,20
2017-07-10T14:10:59.757Z,20
2017-07-10T14:12:01.187Z,20
2017-07-10T14:13:02.618Z,50
2017-07-10T14:14:04.050Z,45
2017-07-10T14:15:05.484Z,15
2017-07-10T14:16:06.915Z,15
2017-07-10T14:17:08.343Z,10
2017-07-10T14:18:09.782Z,10
2017-07-10T14:19:51.206Z,5
2017-07-10T14:20:52.632Z,5
2017-07-10T14:21:54.064Z,5
2017-07-10T14:22:55.496Z,5
2017-07-10T14:23:56.924Z,5
2017-07-10T14:24:58.351Z,5
2017-07-10T14:25:59.779Z,5
2017-07-10T14:27:01.261Z,5
2017-07-10T14:28:02.640Z,5
2017-07-10T14:29:04.068Z,5
2017-07-10T14:30:05.498Z,5
2017-07-10T14:31:06.925Z,5
2017-07-10T14:32:08.350Z,5
2017-07-10T14:33:09.782Z,5
2017-07-10T14:34:11.203Z,5
2017-07-10T14:35:12.634Z,5
2017-07-10T14:36:14.062Z,5
2017-07-10T14:37:15.490Z,5
2017-07-10T14:38:16.997Z,5
2017-07-10T14:39:18.433Z,0
2017-07-10T14:40:19.860Z,0
2017-07-10T14:41:21.289Z,5
2017-07-10T14:43:02.717Z,5
2017-07-10T14:44:04.144Z,5
2017-07-10T14:45:45.559Z,5
2017-07-10T14:46:46.987Z,10
2017-07-10T14:47:48.416Z,10
2017-07-10T14:48:49.844Z,10
2017-07-10T14:49:51.275Z,15
2017-07-10T14:50:52.704Z,15
2017-07-10T14:51:54.132Z,15
2017-07-10T14:52:55.557Z,15
2017-07-10T14:53:56.986Z,10
2017-07-10T14:55:38.636Z,10
2017-07-10T14:57:20.068Z,10
2017-07-10T14:58:21.498Z,10
2017-07-10T14:59:22.927Z,10
2017-07-10T15:00:24.357Z,10